sensor_id;sensor_type;location;lat;lon;timestamp;temperature;humidity
24224;DHT22;12359;49.716;9.212;2022-11-15T00:01:41;7.00;81.30
24224;DHT22;12359;49.716;9.212;2022-11-15T00:04:07;7.00;80.40
24224;DHT22;12359;49.716;9.212;2022-11-15T00:06:33;7.00;81.10
24224;DHT22;12359;49.716;9.212;2022-11-15T00:08:59;7.00;81.80
24224;DHT22;12359;49.716;9.212;2022-11-15T00:11:25;7.10;85.80
24224;DHT22;12359;49.716;9.212;2022-11-15T00:13:51;7.00;84.80
24224;DHT22;12359;49.716;9.212;2022-11-15T00:16:19;7.00;87.30
24224;DHT22;12359;49.716;9.212;2022-11-15T00:18:45;7.10;89.80
24224;DHT22;12359;49.716;9.212;2022-11-15T00:21:12;7.00;85.70
24224;DHT22;12359;49.716;9.212;2022-11-15T00:23:38;7.00;86.60
24224;DHT22;12359;49.716;9.212;2022-11-15T00:26:04;7.00;84.20
24224;DHT22;12359;49.716;9.212;2022-11-15T00:28:30;6.90;83.30
24224;DHT22;12359;49.716;9.212;2022-11-15T00:31:03;7.00;89.00
24224;DHT22;12359;49.716;9.212;2022-11-15T00:33:30;7.00;90.00
24224;DHT22;12359;49.716;9.212;2022-11-15T00:36:07;7.00;86.80
24224;DHT22;12359;49.716;9.212;2022-11-15T00:38:36;7.00;85.70
24224;DHT22;12359;49.716;9.212;2022-11-15T00:41:03;7.00;84.30
24224;DHT22;12359;49.716;9.212;2022-11-15T00:43:29;7.00;80.60
24224;DHT22;12359;49.716;9.212;2022-11-15T00:45:54;7.00;87.40
24224;DHT22;12359;49.716;9.212;2022-11-15T00:48:20;7.00;86.30
24224;DHT22;12359;49.716;9.212;2022-11-15T00:50:46;7.10;86.10
24224;DHT22;12359;49.716;9.212;2022-11-15T00:53:12;7.10;86.10
24224;DHT22;12359;49.716;9.212;2022-11-15T00:55:37;7.10;85.40
24224;DHT22;12359;49.716;9.212;2022-11-15T00:58:03;7.10;84.90
24224;DHT22;12359;49.716;9.212;2022-11-15T01:00:28;7.10;83.80
24224;DHT22;12359;49.716;9.212;2022-11-15T01:02:54;7.10;81.50
24224;DHT22;12359;49.716;9.212;2022-11-15T01:05:20;7.10;82.70
24224;DHT22;12359;49.716;9.212;2022-11-15T01:07:46;7.10;83.10
24224;DHT22;12359;49.716;9.212;2022-11-15T01:10:12;7.10;82.50
24224;DHT22;12359;49.716;9.212;2022-11-15T01:12:37;7.10;82.90
24224;DHT22;12359;49.716;9.212;2022-11-15T01:15:04;7.10;82.30
24224;DHT22;12359;49.716;9.212;2022-11-15T01:17:30;7.10;81.20
24224;DHT22;12359;49.716;9.212;2022-11-15T01:19:56;7.10;80.30
24224;DHT22;12359;49.716;9.212;2022-11-15T01:22:23;7.10;80.10
24224;DHT22;12359;49.716;9.212;2022-11-15T01:24:52;7.10;81.00
24224;DHT22;12359;49.716;9.212;2022-11-15T01:27:18;7.10;80.00
24224;DHT22;12359;49.716;9.212;2022-11-15T01:29:43;7.10;79.10
24224;DHT22;12359;49.716;9.212;2022-11-15T01:32:09;7.00;77.70
24224;DHT22;12359;49.716;9.212;2022-11-15T01:34:34;7.00;79.90
24224;DHT22;12359;49.716;9.212;2022-11-15T01:37:00;7.00;82.30
24224;DHT22;12359;49.716;9.212;2022-11-15T01:39:26;7.00;81.70
24224;DHT22;12359;49.716;9.212;2022-11-15T01:41:52;7.00;81.00
24224;DHT22;12359;49.716;9.212;2022-11-15T01:44:47;7.00;82.20
24224;DHT22;12359;49.716;9.212;2022-11-15T01:47:37;7.00;85.50
24224;DHT22;12359;49.716;9.212;2022-11-15T01:50:08;6.90;85.90
24224;DHT22;12359;49.716;9.212;2022-11-15T01:52:35;6.90;84.60
24224;DHT22;12359;49.716;9.212;2022-11-15T01:55:24;6.90;86.00
24224;DHT22;12359;49.716;9.212;2022-11-15T01:57:56;6.90;85.80
24224;DHT22;12359;49.716;9.212;2022-11-15T02:00:23;6.90;85.10
24224;DHT22;12359;49.716;9.212;2022-11-15T02:02:49;7.00;84.90
24224;DHT22;12359;49.716;9.212;2022-11-15T02:05:15;6.90;83.00
24224;DHT22;12359;49.716;9.212;2022-11-15T02:07:40;6.90;83.30
24224;DHT22;12359;49.716;9.212;2022-11-15T02:10:21;6.90;87.10
24224;DHT22;12359;49.716;9.212;2022-11-15T02:12:48;6.90;89.30
24224;DHT22;12359;49.716;9.212;2022-11-15T02:15:15;6.90;85.80
24224;DHT22;12359;49.716;9.212;2022-11-15T02:32:19;6.80;92.60
24224;DHT22;12359;49.716;9.212;2022-11-15T02:35:13;6.80;92.10
24224;DHT22;12359;49.716;9.212;2022-11-15T02:40:32;6.70;88.80
24224;DHT22;12359;49.716;9.212;2022-11-15T02:43:13;6.70;89.60
24224;DHT22;12359;49.716;9.212;2022-11-15T02:49:14;6.70;89.40
24224;DHT22;12359;49.716;9.212;2022-11-15T02:51:42;6.70;88.60
24224;DHT22;12359;49.716;9.212;2022-11-15T02:54:14;6.60;86.00
24224;DHT22;12359;49.716;9.212;2022-11-15T02:56:43;6.60;87.00
24224;DHT22;12359;49.716;9.212;2022-11-15T03:02:11;6.70;89.80
24224;DHT22;12359;49.716;9.212;2022-11-15T03:10:12;6.90;93.10
24224;DHT22;12359;49.716;9.212;2022-11-15T03:12:55;6.90;92.60
24224;DHT22;12359;49.716;9.212;2022-11-15T03:15:27;7.00;91.60
24224;DHT22;12359;49.716;9.212;2022-11-15T03:18:00;7.00;91.40
24224;DHT22;12359;49.716;9.212;2022-11-15T03:20:27;7.00;89.30
24224;DHT22;12359;49.716;9.212;2022-11-15T03:22:55;6.90;89.40
24224;DHT22;12359;49.716;9.212;2022-11-15T03:25:24;6.90;90.10
24224;DHT22;12359;49.716;9.212;2022-11-15T03:27:52;6.90;91.10
24224;DHT22;12359;49.716;9.212;2022-11-15T03:30:19;6.80;91.60
24224;DHT22;12359;49.716;9.212;2022-11-15T03:32:53;6.80;91.80
24224;DHT22;12359;49.716;9.212;2022-11-15T03:35:22;6.80;92.70
24224;DHT22;12359;49.716;9.212;2022-11-15T03:40:42;6.70;92.00
24224;DHT22;12359;49.716;9.212;2022-11-15T03:45:46;6.60;93.10
24224;DHT22;12359;49.716;9.212;2022-11-15T03:48:24;6.60;94.10
24224;DHT22;12359;49.716;9.212;2022-11-15T03:50:53;6.60;94.40
24224;DHT22;12359;49.716;9.212;2022-11-15T03:53:18;6.60;92.80
24224;DHT22;12359;49.716;9.212;2022-11-15T03:55:44;6.60;92.20
24224;DHT22;12359;49.716;9.212;2022-11-15T03:58:10;6.60;91.10
24224;DHT22;12359;49.716;9.212;2022-11-15T04:00:36;6.60;91.60
24224;DHT22;12359;49.716;9.212;2022-11-15T04:03:01;6.50;92.40
24224;DHT22;12359;49.716;9.212;2022-11-15T04:05:27;6.50;92.20
24224;DHT22;12359;49.716;9.212;2022-11-15T04:07:53;6.50;93.10
24224;DHT22;12359;49.716;9.212;2022-11-15T04:10:18;6.50;94.50
24224;DHT22;12359;49.716;9.212;2022-11-15T04:12:45;6.50;94.20
24224;DHT22;12359;49.716;9.212;2022-11-15T04:15:20;6.50;94.90
24224;DHT22;12359;49.716;9.212;2022-11-15T04:17:52;6.50;95.70
24224;DHT22;12359;49.716;9.212;2022-11-15T04:20:21;6.50;95.30
24224;DHT22;12359;49.716;9.212;2022-11-15T04:23:25;6.60;95.10
24224;DHT22;12359;49.716;9.212;2022-11-15T04:26:16;6.70;95.80
24224;DHT22;12359;49.716;9.212;2022-11-15T04:28:43;6.70;95.50
24224;DHT22;12359;49.716;9.212;2022-11-15T04:31:28;6.70;95.70
24224;DHT22;12359;49.716;9.212;2022-11-15T04:33:54;6.70;95.10
24224;DHT22;12359;49.716;9.212;2022-11-15T04:36:21;6.80;95.80
24224;DHT22;12359;49.716;9.212;2022-11-15T04:39:05;6.80;95.80
24224;DHT22;12359;49.716;9.212;2022-11-15T04:41:31;6.90;94.70
24224;DHT22;12359;49.716;9.212;2022-11-15T04:43:57;6.90;95.00
24224;DHT22;12359;49.716;9.212;2022-11-15T04:46:23;6.90;94.50
24224;DHT22;12359;49.716;9.212;2022-11-15T04:48:49;6.90;93.50
24224;DHT22;12359;49.716;9.212;2022-11-15T04:51:15;6.90;93.10
24224;DHT22;12359;49.716;9.212;2022-11-15T04:53:41;6.90;92.70
24224;DHT22;12359;49.716;9.212;2022-11-15T04:56:07;6.90;92.30
24224;DHT22;12359;49.716;9.212;2022-11-15T04:58:32;6.90;91.40
24224;DHT22;12359;49.716;9.212;2022-11-15T05:01:12;6.90;91.50
24224;DHT22;12359;49.716;9.212;2022-11-15T05:03:40;7.00;92.20
24224;DHT22;12359;49.716;9.212;2022-11-15T05:06:25;7.00;91.70
24224;DHT22;12359;49.716;9.212;2022-11-15T05:08:50;7.00;93.40
24224;DHT22;12359;49.716;9.212;2022-11-15T05:11:16;7.10;92.90
24224;DHT22;12359;49.716;9.212;2022-11-15T05:13:42;7.10;92.80
24224;DHT22;12359;49.716;9.212;2022-11-15T05:16:07;7.10;92.10
24224;DHT22;12359;49.716;9.212;2022-11-15T05:18:33;7.10;90.40
24224;DHT22;12359;49.716;9.212;2022-11-15T05:21:10;7.10;90.10
24224;DHT22;12359;49.716;9.212;2022-11-15T05:23:36;7.00;89.20
24224;DHT22;12359;49.716;9.212;2022-11-15T05:26:03;7.00;90.00
24224;DHT22;12359;49.716;9.212;2022-11-15T05:28:30;7.00;90.70
24224;DHT22;12359;49.716;9.212;2022-11-15T05:31:07;7.00;88.80
24224;DHT22;12359;49.716;9.212;2022-11-15T05:33:35;7.10;90.30
24224;DHT22;12359;49.716;9.212;2022-11-15T05:36:17;7.10;89.90
24224;DHT22;12359;49.716;9.212;2022-11-15T05:38:45;7.10;90.10
24224;DHT22;12359;49.716;9.212;2022-11-15T05:41:11;7.10;89.90
24224;DHT22;12359;49.716;9.212;2022-11-15T05:43:38;7.10;90.40
24224;DHT22;12359;49.716;9.212;2022-11-15T05:46:04;7.10;90.20
24224;DHT22;12359;49.716;9.212;2022-11-15T05:48:31;7.20;91.20
24224;DHT22;12359;49.716;9.212;2022-11-15T05:50:58;7.20;90.60
24224;DHT22;12359;49.716;9.212;2022-11-15T05:53:24;7.20;90.30
24224;DHT22;12359;49.716;9.212;2022-11-15T05:55:51;7.30;90.00
24224;DHT22;12359;49.716;9.212;2022-11-15T05:58:18;7.30;90.30
24224;DHT22;12359;49.716;9.212;2022-11-15T06:00:44;7.30;90.80
24224;DHT22;12359;49.716;9.212;2022-11-15T06:03:10;7.40;91.00
24224;DHT22;12359;49.716;9.212;2022-11-15T06:05:36;7.50;91.60
24224;DHT22;12359;49.716;9.212;2022-11-15T06:08:01;7.50;90.50
24224;DHT22;12359;49.716;9.212;2022-11-15T06:10:27;7.40;86.20
24224;DHT22;12359;49.716;9.212;2022-11-15T06:13:03;7.30;84.60
24224;DHT22;12359;49.716;9.212;2022-11-15T06:15:29;7.10;84.10
24224;DHT22;12359;49.716;9.212;2022-11-15T06:17:58;7.10;85.90
24224;DHT22;12359;49.716;9.212;2022-11-15T06:20:26;7.10;88.50
24224;DHT22;12359;49.716;9.212;2022-11-15T06:22:59;7.00;90.30
24224;DHT22;12359;49.716;9.212;2022-11-15T06:25:26;6.90;90.80
24224;DHT22;12359;49.716;9.212;2022-11-15T06:27:56;7.00;90.60
24224;DHT22;12359;49.716;9.212;2022-11-15T06:30:23;6.90;89.80
24224;DHT22;12359;49.716;9.212;2022-11-15T06:32:49;6.90;88.90
24224;DHT22;12359;49.716;9.212;2022-11-15T06:35:14;6.90;89.90
24224;DHT22;12359;49.716;9.212;2022-11-15T06:37:41;6.90;90.40
24224;DHT22;12359;49.716;9.212;2022-11-15T06:40:08;6.90;91.20
24224;DHT22;12359;49.716;9.212;2022-11-15T06:42:34;6.90;91.70
24224;DHT22;12359;49.716;9.212;2022-11-15T06:45:00;7.00;90.50
24224;DHT22;12359;49.716;9.212;2022-11-15T06:47:26;7.00;90.30
24224;DHT22;12359;49.716;9.212;2022-11-15T06:49:51;7.00;90.90
24224;DHT22;12359;49.716;9.212;2022-11-15T06:52:17;7.10;91.50
24224;DHT22;12359;49.716;9.212;2022-11-15T06:54:47;7.10;90.70
24224;DHT22;12359;49.716;9.212;2022-11-15T06:57:13;7.20;91.20
24224;DHT22;12359;49.716;9.212;2022-11-15T06:59:38;7.30;90.00
24224;DHT22;12359;49.716;9.212;2022-11-15T07:02:04;7.30;89.00
24224;DHT22;12359;49.716;9.212;2022-11-15T07:04:30;7.40;87.50
24224;DHT22;12359;49.716;9.212;2022-11-15T07:06:55;7.40;83.70
24224;DHT22;12359;49.716;9.212;2022-11-15T07:09:21;7.30;81.80
24224;DHT22;12359;49.716;9.212;2022-11-15T07:11:47;7.30;83.70
24224;DHT22;12359;49.716;9.212;2022-11-15T07:14:12;7.40;85.10
24224;DHT22;12359;49.716;9.212;2022-11-15T07:16:38;7.40;85.20
24224;DHT22;12359;49.716;9.212;2022-11-15T07:19:03;7.50;84.00
24224;DHT22;12359;49.716;9.212;2022-11-15T07:21:29;7.50;83.20
24224;DHT22;12359;49.716;9.212;2022-11-15T07:23:55;7.50;86.30
24224;DHT22;12359;49.716;9.212;2022-11-15T07:26:21;7.60;85.20
24224;DHT22;12359;49.716;9.212;2022-11-15T07:28:46;7.70;81.80
24224;DHT22;12359;49.716;9.212;2022-11-15T07:31:12;7.70;79.90
24224;DHT22;12359;49.716;9.212;2022-11-15T07:33:37;7.70;76.60
24224;DHT22;12359;49.716;9.212;2022-11-15T07:36:05;7.70;72.80
24224;DHT22;12359;49.716;9.212;2022-11-15T07:38:32;7.60;65.80
24224;DHT22;12359;49.716;9.212;2022-11-15T07:41:00;7.50;63.90
24224;DHT22;12359;49.716;9.212;2022-11-15T07:43:26;7.30;66.30
24224;DHT22;12359;49.716;9.212;2022-11-15T07:45:56;7.30;75.80
24224;DHT22;12359;49.716;9.212;2022-11-15T07:48:22;7.40;79.00
24224;DHT22;12359;49.716;9.212;2022-11-15T07:50:48;7.50;81.10
24224;DHT22;12359;49.716;9.212;2022-11-15T07:53:14;7.60;78.90
24224;DHT22;12359;49.716;9.212;2022-11-15T07:55:40;7.80;77.00
24224;DHT22;12359;49.716;9.212;2022-11-15T07:58:09;8.00;72.90
24224;DHT22;12359;49.716;9.212;2022-11-15T08:00:36;8.10;63.70
24224;DHT22;12359;49.716;9.212;2022-11-15T08:03:07;8.30;59.10
24224;DHT22;12359;49.716;9.212;2022-11-15T08:05:33;8.70;53.10
24224;DHT22;12359;49.716;9.212;2022-11-15T08:07:59;9.10;38.40
24224;DHT22;12359;49.716;9.212;2022-11-15T08:10:25;9.40;12.40
24224;DHT22;12359;49.716;9.212;2022-11-15T08:13:02;9.30;18.00
24224;DHT22;12359;49.716;9.212;2022-11-15T08:15:28;9.40;21.40
24224;DHT22;12359;49.716;9.212;2022-11-15T08:17:59;9.60;25.30
24224;DHT22;12359;49.716;9.212;2022-11-15T08:20:26;9.80;4.90
24224;DHT22;12359;49.716;9.212;2022-11-15T08:22:56;10.10;1.00
24224;DHT22;12359;49.716;9.212;2022-11-15T08:25:22;10.50;1.00
24224;DHT22;12359;49.716;9.212;2022-11-15T08:27:51;10.80;99.90
24224;DHT22;12359;49.716;9.212;2022-11-15T08:30:17;11.10;99.90
24224;DHT22;12359;49.716;9.212;2022-11-15T08:32:42;11.40;99.90
24224;DHT22;12359;49.716;9.212;2022-11-15T08:35:08;11.80;29.30
24224;DHT22;12359;49.716;9.212;2022-11-15T08:37:34;12.10;99.90
24224;DHT22;12359;49.716;9.212;2022-11-15T08:40:01;12.40;99.90
24224;DHT22;12359;49.716;9.212;2022-11-15T08:42:26;12.80;99.90
24224;DHT22;12359;49.716;9.212;2022-11-15T08:44:52;12.90;7.00
24224;DHT22;12359;49.716;9.212;2022-11-15T08:47:17;13.30;16.10
24224;DHT22;12359;49.716;9.212;2022-11-15T08:49:43;13.60;99.90
24224;DHT22;12359;49.716;9.212;2022-11-15T08:52:09;13.70;99.90
24224;DHT22;12359;49.716;9.212;2022-11-15T08:54:34;13.50;99.90
24224;DHT22;12359;49.716;9.212;2022-11-15T08:57:00;13.40;1.00
24224;DHT22;12359;49.716;9.212;2022-11-15T08:59:26;13.10;8.80
24224;DHT22;12359;49.716;9.212;2022-11-15T09:01:51;12.30;19.40
24224;DHT22;12359;49.716;9.212;2022-11-15T09:04:17;12.00;99.90
24224;DHT22;12359;49.716;9.212;2022-11-15T09:06:43;12.00;11.60
24224;DHT22;12359;49.716;9.212;2022-11-15T09:09:08;12.00;1.00
24224;DHT22;12359;49.716;9.212;2022-11-15T09:11:34;12.20;99.90
24224;DHT22;12359;49.716;9.212;2022-11-15T09:14:00;12.30;61.70
24224;DHT22;12359;49.716;9.212;2022-11-15T09:16:26;12.90;99.90
24224;DHT22;12359;49.716;9.212;2022-11-15T09:18:53;13.40;98.60
24224;DHT22;12359;49.716;9.212;2022-11-15T09:21:20;13.50;1.00
24224;DHT22;12359;49.716;9.212;2022-11-15T09:23:46;13.80;99.90
24224;DHT22;12359;49.716;9.212;2022-11-15T09:26:12;14.20;99.90
24224;DHT22;12359;49.716;9.212;2022-11-15T09:28:38;14.80;99.90
24224;DHT22;12359;49.716;9.212;2022-11-15T09:31:07;15.20;36.50
24224;DHT22;12359;49.716;9.212;2022-11-15T09:33:33;15.60;99.90
24224;DHT22;12359;49.716;9.212;2022-11-15T09:36:09;15.80;99.90
24224;DHT22;12359;49.716;9.212;2022-11-15T09:38:35;15.70;99.90
24224;DHT22;12359;49.716;9.212;2022-11-15T09:49:01;14.30;99.90
24224;DHT22;12359;49.716;9.212;2022-11-15T09:51:32;13.80;99.90
24224;DHT22;12359;49.716;9.212;2022-11-15T09:54:08;13.40;99.90
24224;DHT22;12359;49.716;9.212;2022-11-15T09:56:37;13.20;99.90
24224;DHT22;12359;49.716;9.212;2022-11-15T10:04:14;12.60;99.90
24224;DHT22;12359;49.716;9.212;2022-11-15T10:06:46;12.50;99.90
24224;DHT22;12359;49.716;9.212;2022-11-15T10:12:15;12.50;1.00
24224;DHT22;12359;49.716;9.212;2022-11-15T10:14:42;12.40;99.90
24224;DHT22;12359;49.716;9.212;2022-11-15T10:17:30;12.40;54.10
24224;DHT22;12359;49.716;9.212;2022-11-15T10:20:23;12.40;99.90
24224;DHT22;12359;49.716;9.212;2022-11-15T10:23:05;12.30;99.90
24224;DHT22;12359;49.716;9.212;2022-11-15T10:25:33;12.20;99.90
24224;DHT22;12359;49.716;9.212;2022-11-15T10:28:18;12.20;1.00
24224;DHT22;12359;49.716;9.212;2022-11-15T10:30:51;12.20;1.00
24224;DHT22;12359;49.716;9.212;2022-11-15T10:43:45;12.20;1.00
24224;DHT22;12359;49.716;9.212;2022-11-15T10:46:26;12.20;1.00
24224;DHT22;12359;49.716;9.212;2022-11-15T10:48:52;12.20;1.00
24224;DHT22;12359;49.716;9.212;2022-11-15T10:51:24;12.30;1.00
24224;DHT22;12359;49.716;9.212;2022-11-15T10:53:55;12.30;1.00
24224;DHT22;12359;49.716;9.212;2022-11-15T10:56:22;12.40;1.00
24224;DHT22;12359;49.716;9.212;2022-11-15T10:58:55;12.30;1.00
24224;DHT22;12359;49.716;9.212;2022-11-15T11:01:28;12.40;1.00
24224;DHT22;12359;49.716;9.212;2022-11-15T11:04:08;12.50;99.90
24224;DHT22;12359;49.716;9.212;2022-11-15T11:06:53;12.40;1.00
24224;DHT22;12359;49.716;9.212;2022-11-15T11:09:33;12.50;1.00
24224;DHT22;12359;49.716;9.212;2022-11-15T11:12:00;12.50;1.00
24224;DHT22;12359;49.716;9.212;2022-11-15T11:22:26;12.70;99.90
24224;DHT22;12359;49.716;9.212;2022-11-15T11:25:30;12.80;99.90
24224;DHT22;12359;49.716;9.212;2022-11-15T11:47:10;12.70;1.00
24224;DHT22;12359;49.716;9.212;2022-11-15T11:49:42;12.60;99.90
24224;DHT22;12359;49.716;9.212;2022-11-15T11:52:37;12.70;1.00
24224;DHT22;12359;49.716;9.212;2022-11-15T11:55:26;12.70;99.90
24224;DHT22;12359;49.716;9.212;2022-11-15T12:00:46;12.60;1.00
24224;DHT22;12359;49.716;9.212;2022-11-15T12:03:25;12.70;1.00
24224;DHT22;12359;49.716;9.212;2022-11-15T12:05:57;12.90;1.00
24224;DHT22;12359;49.716;9.212;2022-11-15T12:13:58;13.40;20.40
24224;DHT22;12359;49.716;9.212;2022-11-15T12:16:28;13.30;1.00
24224;DHT22;12359;49.716;9.212;2022-11-15T12:18:57;13.50;1.00
24224;DHT22;12359;49.716;9.212;2022-11-15T12:24:20;13.60;99.90
24224;DHT22;12359;49.716;9.212;2022-11-15T12:27:00;13.70;99.90
24224;DHT22;12359;49.716;9.212;2022-11-15T12:29:39;13.60;15.70
24224;DHT22;12359;49.716;9.212;2022-11-15T12:32:24;13.60;90.00
24224;DHT22;12359;49.716;9.212;2022-11-15T12:34:51;13.60;99.90
24224;DHT22;12359;49.716;9.212;2022-11-15T12:37:46;13.40;99.90
24224;DHT22;12359;49.716;9.212;2022-11-15T12:40:32;13.30;99.90
24224;DHT22;12359;49.716;9.212;2022-11-15T12:45:43;13.30;1.00
24224;DHT22;12359;49.716;9.212;2022-11-15T12:50:56;13.20;9.90
24224;DHT22;12359;49.716;9.212;2022-11-15T12:59:00;13.20;99.90
24224;DHT22;12359;49.716;9.212;2022-11-15T13:04:29;13.20;99.90
24224;DHT22;12359;49.716;9.212;2022-11-15T13:12:04;13.20;99.90
24224;DHT22;12359;49.716;9.212;2022-11-15T13:14:40;13.30;99.90
24224;DHT22;12359;49.716;9.212;2022-11-15T13:19:46;13.30;99.90
24224;DHT22;12359;49.716;9.212;2022-11-15T13:22:12;13.30;99.90
24224;DHT22;12359;49.716;9.212;2022-11-15T13:24:57;13.30;99.90
24224;DHT22;12359;49.716;9.212;2022-11-15T13:27:25;13.30;99.90
24224;DHT22;12359;49.716;9.212;2022-11-15T13:29:51;13.40;99.90
24224;DHT22;12359;49.716;9.212;2022-11-15T13:32:17;13.30;99.90
24224;DHT22;12359;49.716;9.212;2022-11-15T13:34:45;13.40;99.90
24224;DHT22;12359;49.716;9.212;2022-11-15T13:39:48;13.30;99.90
24224;DHT22;12359;49.716;9.212;2022-11-15T13:42:19;13.30;1.00
24224;DHT22;12359;49.716;9.212;2022-11-15T13:44:58;13.30;1.00
24224;DHT22;12359;49.716;9.212;2022-11-15T13:47:26;13.40;1.00
24224;DHT22;12359;49.716;9.212;2022-11-15T13:49:53;13.40;1.00
24224;DHT22;12359;49.716;9.212;2022-11-15T13:52:19;13.50;1.00
24224;DHT22;12359;49.716;9.212;2022-11-15T13:55:02;13.50;99.90
24224;DHT22;12359;49.716;9.212;2022-11-15T13:57:43;13.60;1.00
24224;DHT22;12359;49.716;9.212;2022-11-15T14:02:57;13.50;1.00
24224;DHT22;12359;49.716;9.212;2022-11-15T14:05:29;13.60;99.90
24224;DHT22;12359;49.716;9.212;2022-11-15T14:08:11;13.50;99.90
24224;DHT22;12359;49.716;9.212;2022-11-15T14:10:38;13.50;1.00
24224;DHT22;12359;49.716;9.212;2022-11-15T14:13:11;13.40;1.00
24224;DHT22;12359;49.716;9.212;2022-11-15T14:15:52;13.40;1.00
24224;DHT22;12359;49.716;9.212;2022-11-15T14:18:44;13.40;1.00
24224;DHT22;12359;49.716;9.212;2022-11-15T14:21:10;13.40;1.00
24224;DHT22;12359;49.716;9.212;2022-11-15T14:23:36;13.20;1.00
24224;DHT22;12359;49.716;9.212;2022-11-15T14:26:01;13.30;1.00
24224;DHT22;12359;49.716;9.212;2022-11-15T14:28:31;13.30;25.10
24224;DHT22;12359;49.716;9.212;2022-11-15T14:30:59;13.20;97.20
24224;DHT22;12359;49.716;9.212;2022-11-15T14:33:35;13.30;79.90
24224;DHT22;12359;49.716;9.212;2022-11-15T14:36:11;13.30;91.40
24224;DHT22;12359;49.716;9.212;2022-11-15T14:38:38;13.30;99.90
24224;DHT22;12359;49.716;9.212;2022-11-15T14:41:03;13.30;99.90
24224;DHT22;12359;49.716;9.212;2022-11-15T14:43:29;13.30;99.90
24224;DHT22;12359;49.716;9.212;2022-11-15T14:45:55;13.30;99.90
24224;DHT22;12359;49.716;9.212;2022-11-15T14:48:20;13.20;99.90
24224;DHT22;12359;49.716;9.212;2022-11-15T14:50:47;13.30;99.90
24224;DHT22;12359;49.716;9.212;2022-11-15T14:53:17;13.30;99.90
24224;DHT22;12359;49.716;9.212;2022-11-15T14:55:43;13.30;99.90
24224;DHT22;12359;49.716;9.212;2022-11-15T14:58:09;13.30;99.90
24224;DHT22;12359;49.716;9.212;2022-11-15T15:00:37;13.30;99.90
24224;DHT22;12359;49.716;9.212;2022-11-15T15:03:04;13.30;99.90
24224;DHT22;12359;49.716;9.212;2022-11-15T15:05:33;13.40;99.90
24224;DHT22;12359;49.716;9.212;2022-11-15T15:07:59;13.40;99.90
24224;DHT22;12359;49.716;9.212;2022-11-15T15:10:25;13.30;99.90
24224;DHT22;12359;49.716;9.212;2022-11-15T15:12:53;13.30;99.90
24224;DHT22;12359;49.716;9.212;2022-11-15T15:15:24;13.30;99.90
24224;DHT22;12359;49.716;9.212;2022-11-15T15:17:50;13.20;99.90
24224;DHT22;12359;49.716;9.212;2022-11-15T15:20:15;13.20;99.90
24224;DHT22;12359;49.716;9.212;2022-11-15T15:22:41;13.10;99.90
24224;DHT22;12359;49.716;9.212;2022-11-15T15:25:29;13.10;99.90
24224;DHT22;12359;49.716;9.212;2022-11-15T15:27:56;13.00;99.90
24224;DHT22;12359;49.716;9.212;2022-11-15T15:30:26;13.00;99.90
24224;DHT22;12359;49.716;9.212;2022-11-15T15:32:52;13.00;99.90
24224;DHT22;12359;49.716;9.212;2022-11-15T15:35:19;13.00;99.90
24224;DHT22;12359;49.716;9.212;2022-11-15T15:37:46;12.90;99.90
24224;DHT22;12359;49.716;9.212;2022-11-15T15:40:20;12.90;99.90
24224;DHT22;12359;49.716;9.212;2022-11-15T15:42:47;12.90;99.90
24224;DHT22;12359;49.716;9.212;2022-11-15T15:45:14;12.80;99.90
24224;DHT22;12359;49.716;9.212;2022-11-15T15:47:40;12.80;99.90
24224;DHT22;12359;49.716;9.212;2022-11-15T15:50:33;12.70;99.90
24224;DHT22;12359;49.716;9.212;2022-11-15T15:53:02;12.60;99.90
24224;DHT22;12359;49.716;9.212;2022-11-15T15:55:28;12.60;99.90
24224;DHT22;12359;49.716;9.212;2022-11-15T15:57:54;12.50;99.90
24224;DHT22;12359;49.716;9.212;2022-11-15T16:00:21;12.50;1.00
24224;DHT22;12359;49.716;9.212;2022-11-15T16:02:49;12.50;1.00
24224;DHT22;12359;49.716;9.212;2022-11-15T16:05:14;12.40;1.00
24224;DHT22;12359;49.716;9.212;2022-11-15T16:07:40;12.40;1.00
24224;DHT22;12359;49.716;9.212;2022-11-15T16:10:27;12.40;1.00
24224;DHT22;12359;49.716;9.212;2022-11-15T16:12:54;12.30;1.00
24224;DHT22;12359;49.716;9.212;2022-11-15T16:15:21;12.30;1.00
24224;DHT22;12359;49.716;9.212;2022-11-15T16:17:50;12.30;1.00
24224;DHT22;12359;49.716;9.212;2022-11-15T16:23:09;12.30;1.00
24224;DHT22;12359;49.716;9.212;2022-11-15T16:26:01;12.20;1.00
24224;DHT22;12359;49.716;9.212;2022-11-15T16:28:30;12.30;1.00
24224;DHT22;12359;49.716;9.212;2022-11-15T16:31:09;12.20;1.00
24224;DHT22;12359;49.716;9.212;2022-11-15T16:33:36;12.20;1.00
24224;DHT22;12359;49.716;9.212;2022-11-15T16:36:03;12.10;1.00
24224;DHT22;12359;49.716;9.212;2022-11-15T16:38:29;12.10;1.00
24224;DHT22;12359;49.716;9.212;2022-11-15T16:40:55;12.10;1.00
24224;DHT22;12359;49.716;9.212;2022-11-15T16:43:20;12.10;1.00
24224;DHT22;12359;49.716;9.212;2022-11-15T16:45:46;12.10;1.00
24224;DHT22;12359;49.716;9.212;2022-11-15T16:48:38;12.10;1.00
24224;DHT22;12359;49.716;9.212;2022-11-15T16:51:04;12.10;1.00
24224;DHT22;12359;49.716;9.212;2022-11-15T16:53:30;12.10;1.00
24224;DHT22;12359;49.716;9.212;2022-11-15T16:55:56;12.10;1.00
24224;DHT22;12359;49.716;9.212;2022-11-15T16:58:23;12.10;1.00
24224;DHT22;12359;49.716;9.212;2022-11-15T17:00:52;12.10;1.00
24224;DHT22;12359;49.716;9.212;2022-11-15T17:03:19;12.10;1.00
24224;DHT22;12359;49.716;9.212;2022-11-15T17:05:45;12.10;1.00
24224;DHT22;12359;49.716;9.212;2022-11-15T17:08:10;12.00;1.00
24224;DHT22;12359;49.716;9.212;2022-11-15T17:10:38;12.00;1.00
24224;DHT22;12359;49.716;9.212;2022-11-15T17:13:12;11.90;1.00
24224;DHT22;12359;49.716;9.212;2022-11-15T17:15:38;11.90;1.00
24224;DHT22;12359;49.716;9.212;2022-11-15T17:18:05;11.90;1.70
24224;DHT22;12359;49.716;9.212;2022-11-15T17:20:31;11.90;5.40
24224;DHT22;12359;49.716;9.212;2022-11-15T17:22:57;11.90;5.70
24224;DHT22;12359;49.716;9.212;2022-11-15T17:25:22;11.90;6.60
24224;DHT22;12359;49.716;9.212;2022-11-15T17:27:48;11.90;9.90
24224;DHT22;12359;49.716;9.212;2022-11-15T17:30:14;11.90;7.40
24224;DHT22;12359;49.716;9.212;2022-11-15T17:32:41;11.90;7.10
24224;DHT22;12359;49.716;9.212;2022-11-15T17:35:08;11.90;6.40
24224;DHT22;12359;49.716;9.212;2022-11-15T17:37:35;11.90;6.70
24224;DHT22;12359;49.716;9.212;2022-11-15T17:40:01;12.00;4.90
24224;DHT22;12359;49.716;9.212;2022-11-15T17:42:27;12.00;1.10
24224;DHT22;12359;49.716;9.212;2022-11-15T17:44:52;12.00;1.00
24224;DHT22;12359;49.716;9.212;2022-11-15T17:47:18;12.00;1.00
24224;DHT22;12359;49.716;9.212;2022-11-15T17:49:44;12.00;2.30
24224;DHT22;12359;49.716;9.212;2022-11-15T17:52:09;12.00;2.20
24224;DHT22;12359;49.716;9.212;2022-11-15T17:54:35;12.00;1.00
24224;DHT22;12359;49.716;9.212;2022-11-15T17:57:01;12.00;6.10
24224;DHT22;12359;49.716;9.212;2022-11-15T17:59:26;11.90;7.80
24224;DHT22;12359;49.716;9.212;2022-11-15T18:01:52;11.90;7.90
24224;DHT22;12359;49.716;9.212;2022-11-15T18:04:21;11.90;8.00
24224;DHT22;12359;49.716;9.212;2022-11-15T18:06:53;11.90;9.40